Flight Track Log - Related Links

Times and Time Zones

All times are in EDT time to prevent confusion due to time zone crossing. See the AWE1940 flight status page for this flight to view local times or setup timezone preferences in your user account.

Time Position Orientation Groundspeed Altitude Reporting Facility
EDT Latitude Longitude Course Direction KTS MPH feet Rate Location/Type
Mon 10:27:02 PM 35.2389 -80.9389 72° East 161 185 2,200  Level Atlanta Center
Mon 10:27:33 PM 35.2575 -80.9358 North 167 192 3,000 1,754 Climbing Atlanta Center
Mon 10:28:07 PM 35.2775 -80.8994 56° Northeast 248 285 4,100 2,545 Climbing Atlanta Center
Mon 10:28:39 PM 35.2889 -80.8531 73° East 275 316 5,800 3,000 Climbing Atlanta Center
Mon 10:29:00 PM 35.1142 -80.6239 29° Northeast  Level FlightAware Approximate
Mon 10:29:07 PM 35.2942 -80.8122 81° East 264 304 7,100  Level Atlanta Center
Mon 10:30:00 PM 35.2114 -80.5585 30° Northeast  Level FlightAware Approximate
Mon 10:30:07 PM 35.3125 -80.7172 77° East 285 328 10,100  Level Atlanta Center
Mon 10:31:00 PM 35.3072 -80.4901 30° Northeast  Level FlightAware Approximate
Mon 10:31:07 PM 35.3328 -80.6197 76° East 291 335 12,600  Level Atlanta Center
Mon 10:32:00 PM 35.3548 -80.3853 72° East  Level FlightAware Approximate
Mon 10:32:07 PM 35.3528 -80.5222 76° East 308 354 13,800  Level Atlanta Center
Mon 10:33:07 PM 35.3803 -80.3936 75° East 360 414 15,700 2,300 Climbing Atlanta Center
Mon 10:34:07 PM 35.4078 -80.2650 75° East 381 438 18,400 2,606 Climbing Atlanta Center
Mon 10:36:25 PM 35.4869 -79.9311 74° East 434 499 24,300 2,455 Climbing Washington Center
Mon 10:37:25 PM 35.5231 -79.7928 72° East 429 494 26,500 2,000 Climbing Washington Center
Mon 10:38:25 PM 35.5594 -79.6492 73° East 429 494 28,300 1,820 Climbing Washington Center
Mon 10:39:27 PM 35.5997 -79.5031 71° East 442 509 30,200 2,350 Climbing Washington Center
Mon 10:40:25 PM 35.6656 -79.4064 50° Northeast 394 453 33,000 2,288 Climbing Washington Center
Mon 10:41:25 PM 35.7389 -79.3256 42° Northeast 359 413 34,700 992 Climbing Washington Center
Mon 10:42:26 PM 35.8167 -79.2422 41° Northeast 359 413 35,000 148 Climbing Washington Center
Mon 10:43:27 PM 35.8986 -79.1511 42° Northeast 371 427 35,000  Level Washington Center
Mon 10:44:25 PM 35.9742 -79.0647 43° Northeast 386 444 35,000  Level Washington Center
Mon 10:45:26 PM 36.0542 -78.9731 43° Northeast 392 451 35,000  Level Washington Center
Mon 10:46:26 PM 36.1400 -78.8817 41° Northeast 392 451 35,000  Level Washington Center
Mon 10:47:26 PM 36.2239 -78.7897 41° Northeast 397 457 35,000  Level Washington Center
Mon 10:48:26 PM 36.3100 -78.6903 43° Northeast 402 463 35,000  Level Washington Center
Mon 10:49:27 PM 36.3917 -78.5956 43° Northeast 402 463 35,000  Level Washington Center
Mon 10:50:25 PM 36.4753 -78.5031 42° Northeast 397 457 35,000  Level Washington Center
Mon 10:51:26 PM 36.5611 -78.4056 42° Northeast 402 463 35,000  Level Washington Center
Mon 10:52:27 PM 36.6469 -78.3075 42° Northeast 402 463 35,000  Level Washington Center
Mon 10:53:24 PM 36.7283 -78.2094 44° Northeast 408 470 35,000  Level Washington Center
Mon 10:54:26 PM 36.8161 -78.1086 43° Northeast 408 470 35,000  Level Washington Center
Mon 10:55:26 PM 36.9017 -78.0100 43° Northeast 408 470 35,000  Level Washington Center
Mon 10:56:28 PM 36.9869 -77.9086 44° Northeast 408 470 35,000  Level Washington Center
Mon 10:57:25 PM 37.0722 -77.8122 42° Northeast 408 470 35,000  Level Washington Center
Mon 10:58:26 PM 37.1575 -77.7131 43° Northeast 408 470 35,000  Level Washington Center
Mon 10:59:26 PM 37.2428 -77.6136 43° Northeast 408 470 35,000  Level Washington Center
Mon 11:00:25 PM 37.3319 -77.5089 43° Northeast 408 470 35,000  Level Washington Center
Mon 11:01:26 PM 37.4169 -77.4092 43° Northeast 408 470 35,000  Level Washington Center
Mon 11:02:27 PM 37.5039 -77.3067 43° Northeast 408 470 35,000  Level Washington Center
Mon 11:03:27 PM 37.5931 -77.2011 43° Northeast 413 475 35,000  Level Washington Center
Mon 11:04:25 PM 37.6800 -77.0981 43° Northeast 419 482 35,000  Level Washington Center
Mon 11:05:25 PM 37.7689 -76.9947 43° Northeast 419 482 35,000  Level Washington Center
Mon 11:06:26 PM 37.8556 -76.8911 43° Northeast 419 482 35,000  Level Washington Center
Mon 11:07:26 PM 37.9400 -76.7872 44° Northeast 419 482 35,000  Level Washington Center
Mon 11:08:24 PM 38.0328 -76.6858 41° Northeast 424 488 35,000  Level Washington Center
Mon 11:09:25 PM 38.1253 -76.5947 38° Northeast 424 488 35,000 -194 Level Washington Center
Mon 11:10:28 PM 38.2219 -76.4983 38° Northeast 424 488 34,600 -600 Descending Washington Center
Mon 11:11:25 PM 38.3142 -76.4094 37° Northeast 424 488 33,800 -814 Descending Washington Center
Mon 11:12:26 PM 38.4067 -76.3178 38° Northeast 419 482 33,000 -393 Descending Washington Center
Mon 11:13:27 PM 38.5008 -76.2231 38° Northeast 419 482 33,000  Level Washington Center
Mon 11:14:27 PM 38.6014 -76.1256 37° Northeast 426 490 33,000  Level Washington Center
Mon 11:15:26 PM 38.7019 -76.0333 36° Northeast 437 503 33,000  Level Washington Center
Mon 11:16:26 PM 38.7961 -75.9353 39° Northeast 442 509 33,000  Level Washington Center
Mon 11:17:26 PM 38.8922 -75.8397 38° Northeast 442 509 33,000  Level Washington Center
Mon 11:18:27 PM 38.9883 -75.7386 39° Northeast 442 509 33,000  Level Washington Center
Mon 11:19:27 PM 39.0883 -75.6425 37° Northeast 442 509 33,000  Level Washington Center
Mon 11:20:26 PM 39.1864 -75.5433 38° Northeast 442 509 33,000  Level Washington Center
Mon 11:21:26 PM 39.2822 -75.4414 39° Northeast 442 509 33,000  Level Washington Center
Mon 11:22:27 PM 39.3758 -75.3419 39° Northeast 442 509 33,000  Level Washington Center
Mon 11:23:27 PM 39.4756 -75.2419 38° Northeast 442 509 33,000  Level Washington Center
Mon 11:24:24 PM 39.5711 -75.1419 39° Northeast 442 509 33,000  Level Washington Center
Mon 11:25:25 PM 39.6686 -75.0417 38° Northeast 442 509 33,000  Level Washington Center
Mon 11:27:41 PM 39.9050 -74.8028 38° Northeast 448 516 33,000  Level New York Center
Mon 11:28:41 PM 40.0022 -74.7000 39° Northeast 453 521 33,000  Level New York Center
Mon 11:29:41 PM 40.0906 -74.6128 37° Northeast 453 521 33,000  Level New York Center
Mon 11:30:41 PM 40.1878 -74.5069 40° Northeast 453 521 33,000 -49 Level New York Center
Mon 11:31:43 PM 40.2869 -74.4033 39° Northeast 453 521 32,900 -246 Descending New York Center
Mon 11:32:43 PM 40.4092 -74.3553 17° North 442 509 32,500 -400 Descending New York Center
Mon 11:33:43 PM 40.5331 -74.3264 10° North 442 509 32,100 -400 Descending New York Center
Mon 11:34:43 PM 40.6547 -74.2969 10° North 448 516 31,700 -1,327 Descending New York Center
Mon 11:37:20 PM 40.9692 -74.2269 10° North 379 436 27,300 -1,576 Descending Boston Center
Mon 11:38:20 PM 41.0758 -74.2050 North 379 436 26,000 -650 Descending Boston Center
Mon 11:39:20 PM 41.1803 -74.1775 11° North 379 436 26,000  Level Boston Center
Mon 11:40:20 PM 41.2828 -74.1528 10° North 369 425 26,000  Level Boston Center
Mon 11:41:20 PM 41.3833 -74.1278 11° North 369 425 26,000 -50 Level Boston Center
Mon 11:42:20 PM 41.4919 -74.1000 11° North 382 440 25,900 -1,050 Descending Boston Center
Mon 11:43:20 PM 41.6008 -74.0753 10° North 390 449 23,900 -2,250 Descending Boston Center
Mon 11:44:20 PM 41.6989 -74.0556 North 376 433 21,400 -2,300 Descending Boston Center
Mon 11:45:20 PM 41.7722 -74.0378 10° North 354 407 19,300 -2,400 Descending Boston Center
Mon 11:46:20 PM 41.8706 -74.0153 10° North 313 360 16,600 -2,550 Descending Boston Center
Mon 11:47:20 PM 41.9500 -73.9950 11° North 313 360 14,200 -2,500 Descending Boston Center
Mon 11:48:20 PM 42.0483 -73.9750 North 319 367 11,600 -1,794 Descending Boston Center
Mon 11:49:07 PM 42.1194 -73.9572 11° North 324 373 11,000 -561 Descending Boston Center
Mon 11:50:07 PM 42.1947 -73.9364 12° North 263 303 10,600 -942 Descending Boston Center
Mon 11:51:08 PM 42.2658 -73.9131 14° North 255 293 9,100 -1,488 Descending Boston Center
Mon 11:52:08 PM 42.3328 -73.8978 10° North 250 288 7,600 -1,488 Descending Boston Center
Mon 11:53:09 PM 42.3997 -73.8767 13° North 240 276 6,100 -1,475 Descending Boston Center
Mon 11:54:10 PM 42.4625 -73.8558 14° North 235 270 4,600 -1,537 Descending Boston Center
Mon 11:55:10 PM 42.5294 -73.8375 11° North 229 264 3,000 -1,289 Descending Boston Center
Mon 11:56:11 PM 42.5900 -73.8219 11° North 221 254 2,000 -496 Descending Boston Center
Mon 11:57:11 PM 42.6381 -73.8033 16° North 167 192 2,000 -198 Level Boston Center
Mon 11:58:12 PM 42.6778 -73.8042 359° North 131 151 1,600 -590 Descending Boston Center
Mon 11:59:13 PM 42.7153 -73.8050 359° North 125 144 800 -787 Descending Boston Center

Login

Don't have an account? Register now (free) for customized features, flight alerts, and more!